Pays
Station

 

Conditions  météo  pour  Pescara  -  Italie    Italie

  
13 °C
    
 
 

METAR pour Pescara :

LIBP 142350Z AUTO VRB02KT 4900 BR BKN018/// OVC036/// 13/12 Q1025

 

Voici le bulletin pour Pescara - Italie.
 
Le bulletin a été fait il y a 31 minutes, à 23:50 UTC .
Le vent soufflait à la vitesse de 1.0 mètres par seconde de direction variable.
 
La température était de 13 °C, avec un point de rosée à 12 °C.
La pression atmosphérique était de 1025 hPa.
L'humidité relative était de 93.6%.
 
La visibilité globale était de 4900 mètres.
 
Actuellement brume.

 
 
 

Pays :   A   B   C   D   E   F   G   H   I   J   K   L   M   N   O   P   Q   R   S   T   U   V   W   Y   Z

 

Partenaires :  Info Météo avec Met'info
Météo Marine avec MeteoMarine.net
Infos Site  |  Infos Légales  |  Crédits  |  Confidentialité
Contactez-nous  |  Ajouter aux favoris
© 2013-2018 METAR - Tous droits réservés